sensor_id;sensor_type;location;lat;lon;timestamp;P1;durP1;ratioP1;P2;durP2;ratioP2
53269;SDS011;39159;45.634;9.420;2023-01-31T00:01:07;67.80;;;31.92;;
53269;SDS011;39159;45.634;9.420;2023-01-31T00:03:34;75.63;;;34.75;;
53269;SDS011;39159;45.634;9.420;2023-01-31T00:08:41;83.90;;;39.47;;
53269;SDS011;39159;45.634;9.420;2023-01-31T00:11:07;83.28;;;37.63;;
53269;SDS011;39159;45.634;9.420;2023-01-31T00:13:32;77.05;;;35.33;;
53269;SDS011;39159;45.634;9.420;2023-01-31T00:15:58;88.80;;;39.10;;
53269;SDS011;39159;45.634;9.420;2023-01-31T00:18:24;88.57;;;38.20;;
53269;SDS011;39159;45.634;9.420;2023-01-31T00:20:49;86.28;;;38.40;;
53269;SDS011;39159;45.634;9.420;2023-01-31T00:23:15;78.57;;;38.38;;
53269;SDS011;39159;45.634;9.420;2023-01-31T00:25:40;93.32;;;40.42;;
53269;SDS011;39159;45.634;9.420;2023-01-31T00:28:06;92.50;;;39.60;;
53269;SDS011;39159;45.634;9.420;2023-01-31T00:30:31;87.68;;;40.70;;
53269;SDS011;39159;45.634;9.420;2023-01-31T00:32:56;89.35;;;41.72;;
53269;SDS011;39159;45.634;9.420;2023-01-31T00:35:22;89.80;;;41.97;;
53269;SDS011;39159;45.634;9.420;2023-01-31T00:37:47;88.05;;;39.97;;
53269;SDS011;39159;45.634;9.420;2023-01-31T00:40:13;90.65;;;41.20;;
53269;SDS011;39159;45.634;9.420;2023-01-31T00:42:38;90.35;;;41.88;;
53269;SDS011;39159;45.634;9.420;2023-01-31T00:45:04;93.15;;;41.92;;
53269;SDS011;39159;45.634;9.420;2023-01-31T00:47:29;92.78;;;42.95;;
53269;SDS011;39159;45.634;9.420;2023-01-31T00:49:55;87.80;;;43.25;;
53269;SDS011;39159;45.634;9.420;2023-01-31T00:52:20;92.97;;;42.53;;
53269;SDS011;39159;45.634;9.420;2023-01-31T00:54:45;92.13;;;41.33;;
53269;SDS011;39159;45.634;9.420;2023-01-31T00:57:11;99.45;;;44.55;;
53269;SDS011;39159;45.634;9.420;2023-01-31T00:59:36;93.55;;;41.47;;
53269;SDS011;39159;45.634;9.420;2023-01-31T01:02:02;98.60;;;42.58;;
53269;SDS011;39159;45.634;9.420;2023-01-31T01:04:27;91.38;;;41.30;;
53269;SDS011;39159;45.634;9.420;2023-01-31T01:06:52;89.68;;;42.08;;
53269;SDS011;39159;45.634;9.420;2023-01-31T01:09:18;87.97;;;41.00;;
53269;SDS011;39159;45.634;9.420;2023-01-31T01:11:43;93.00;;;41.58;;
53269;SDS011;39159;45.634;9.420;2023-01-31T01:14:09;86.35;;;41.03;;
53269;SDS011;39159;45.634;9.420;2023-01-31T01:16:36;98.97;;;42.72;;
53269;SDS011;39159;45.634;9.420;2023-01-31T01:19:03;101.85;;;43.55;;
53269;SDS011;39159;45.634;9.420;2023-01-31T01:21:31;100.25;;;42.97;;
53269;SDS011;39159;45.634;9.420;2023-01-31T01:24:00;100.82;;;43.33;;
53269;SDS011;39159;45.634;9.420;2023-01-31T01:26:27;97.55;;;43.78;;
53269;SDS011;39159;45.634;9.420;2023-01-31T01:28:54;93.65;;;42.70;;
53269;SDS011;39159;45.634;9.420;2023-01-31T01:31:21;89.13;;;42.45;;
53269;SDS011;39159;45.634;9.420;2023-01-31T01:33:47;89.80;;;41.88;;
53269;SDS011;39159;45.634;9.420;2023-01-31T01:36:14;95.40;;;44.05;;
53269;SDS011;39159;45.634;9.420;2023-01-31T01:38:42;88.00;;;42.33;;
53269;SDS011;39159;45.634;9.420;2023-01-31T01:41:09;99.82;;;44.03;;
53269;SDS011;39159;45.634;9.420;2023-01-31T01:49:02;79.88;;;39.08;;
53269;SDS011;39159;45.634;9.420;2023-01-31T01:51:34;88.95;;;40.63;;
53269;SDS011;39159;45.634;9.420;2023-01-31T01:54:02;87.35;;;40.22;;
53269;SDS011;39159;45.634;9.420;2023-01-31T01:56:33;83.57;;;40.88;;
53269;SDS011;39159;45.634;9.420;2023-01-31T02:01:28;82.97;;;39.55;;
53269;SDS011;39159;45.634;9.420;2023-01-31T02:03:58;84.47;;;38.47;;
53269;SDS011;39159;45.634;9.420;2023-01-31T02:06:24;84.15;;;39.08;;
53269;SDS011;39159;45.634;9.420;2023-01-31T02:08:49;75.63;;;37.78;;
53269;SDS011;39159;45.634;9.420;2023-01-31T02:11:23;84.38;;;39.92;;
53269;SDS011;39159;45.634;9.420;2023-01-31T02:14:00;78.43;;;37.83;;
53269;SDS011;39159;45.634;9.420;2023-01-31T02:16:29;77.88;;;36.97;;
53269;SDS011;39159;45.634;9.420;2023-01-31T02:18:54;85.03;;;37.70;;
53269;SDS011;39159;45.634;9.420;2023-01-31T02:21:30;73.97;;;34.95;;
53269;SDS011;39159;45.634;9.420;2023-01-31T02:40:29;78.30;;;36.42;;
53269;SDS011;39159;45.634;9.420;2023-01-31T02:43:17;82.18;;;36.15;;
53269;SDS011;39159;45.634;9.420;2023-01-31T02:46:03;78.32;;;35.60;;
53269;SDS011;39159;45.634;9.420;2023-01-31T02:48:55;82.03;;;37.90;;
53269;SDS011;39159;45.634;9.420;2023-01-31T02:51:28;82.47;;;36.33;;
53269;SDS011;39159;45.634;9.420;2023-01-31T02:56:41;81.15;;;36.50;;
53269;SDS011;39159;45.634;9.420;2023-01-31T02:59:11;71.07;;;36.05;;
53269;SDS011;39159;45.634;9.420;2023-01-31T03:01:43;77.15;;;35.05;;
53269;SDS011;39159;45.634;9.420;2023-01-31T03:04:12;77.95;;;34.78;;
53269;SDS011;39159;45.634;9.420;2023-01-31T03:09:31;82.68;;;36.83;;
53269;SDS011;39159;45.634;9.420;2023-01-31T03:12:15;80.28;;;36.63;;
53269;SDS011;39159;45.634;9.420;2023-01-31T03:15:00;79.63;;;37.03;;
53269;SDS011;39159;45.634;9.420;2023-01-31T03:17:49;68.35;;;33.42;;
53269;SDS011;39159;45.634;9.420;2023-01-31T03:20:33;74.13;;;35.60;;
53269;SDS011;39159;45.634;9.420;2023-01-31T03:23:13;75.03;;;35.30;;
53269;SDS011;39159;45.634;9.420;2023-01-31T03:25:42;71.00;;;35.40;;
53269;SDS011;39159;45.634;9.420;2023-01-31T03:28:11;76.85;;;35.28;;
53269;SDS011;39159;45.634;9.420;2023-01-31T03:30:44;77.20;;;37.15;;
53269;SDS011;39159;45.634;9.420;2023-01-31T03:33:23;78.53;;;35.50;;
53269;SDS011;39159;45.634;9.420;2023-01-31T03:36:00;67.32;;;32.13;;
53269;SDS011;39159;45.634;9.420;2023-01-31T03:39:04;82.82;;;35.97;;
53269;SDS011;39159;45.634;9.420;2023-01-31T03:46:47;70.47;;;34.63;;
53269;SDS011;39159;45.634;9.420;2023-01-31T03:49:15;73.80;;;36.58;;
53269;SDS011;39159;45.634;9.420;2023-01-31T03:51:45;79.75;;;36.63;;
53269;SDS011;39159;45.634;9.420;2023-01-31T03:54:25;77.63;;;36.60;;
53269;SDS011;39159;45.634;9.420;2023-01-31T03:56:58;76.03;;;35.92;;
53269;SDS011;39159;45.634;9.420;2023-01-31T03:59:31;72.30;;;35.75;;
53269;SDS011;39159;45.634;9.420;2023-01-31T04:02:02;70.53;;;34.70;;
53269;SDS011;39159;45.634;9.420;2023-01-31T04:04:35;71.65;;;34.45;;
53269;SDS011;39159;45.634;9.420;2023-01-31T04:07:05;78.60;;;36.15;;
53269;SDS011;39159;45.634;9.420;2023-01-31T04:09:31;76.13;;;35.15;;
53269;SDS011;39159;45.634;9.420;2023-01-31T04:12:00;76.60;;;36.90;;
53269;SDS011;39159;45.634;9.420;2023-01-31T04:14:26;82.00;;;36.55;;
53269;SDS011;39159;45.634;9.420;2023-01-31T04:16:52;78.05;;;36.63;;
53269;SDS011;39159;45.634;9.420;2023-01-31T04:19:17;78.60;;;36.65;;
53269;SDS011;39159;45.634;9.420;2023-01-31T04:21:42;79.25;;;36.63;;
53269;SDS011;39159;45.634;9.420;2023-01-31T04:24:08;85.18;;;38.92;;
53269;SDS011;39159;45.634;9.420;2023-01-31T04:26:34;79.45;;;37.50;;
53269;SDS011;39159;45.634;9.420;2023-01-31T04:29:00;83.55;;;36.45;;
53269;SDS011;39159;45.634;9.420;2023-01-31T04:31:25;75.85;;;35.80;;
53269;SDS011;39159;45.634;9.420;2023-01-31T04:33:51;79.22;;;36.42;;
53269;SDS011;39159;45.634;9.420;2023-01-31T04:36:16;77.47;;;36.90;;
53269;SDS011;39159;45.634;9.420;2023-01-31T04:38:41;72.00;;;35.67;;
53269;SDS011;39159;45.634;9.420;2023-01-31T04:41:07;81.88;;;35.97;;
53269;SDS011;39159;45.634;9.420;2023-01-31T04:43:32;84.22;;;38.67;;
53269;SDS011;39159;45.634;9.420;2023-01-31T04:45:57;84.78;;;37.78;;
53269;SDS011;39159;45.634;9.420;2023-01-31T04:48:23;69.82;;;33.63;;
53269;SDS011;39159;45.634;9.420;2023-01-31T04:50:48;69.15;;;35.20;;
53269;SDS011;39159;45.634;9.420;2023-01-31T04:53:14;78.90;;;35.17;;
53269;SDS011;39159;45.634;9.420;2023-01-31T04:55:39;73.70;;;34.80;;
53269;SDS011;39159;45.634;9.420;2023-01-31T04:58:04;73.00;;;34.05;;
53269;SDS011;39159;45.634;9.420;2023-01-31T05:00:30;75.53;;;36.00;;
53269;SDS011;39159;45.634;9.420;2023-01-31T05:02:55;77.82;;;36.65;;
53269;SDS011;39159;45.634;9.420;2023-01-31T05:05:21;82.72;;;37.00;;
53269;SDS011;39159;45.634;9.420;2023-01-31T05:07:46;75.10;;;35.83;;
53269;SDS011;39159;45.634;9.420;2023-01-31T05:10:11;83.75;;;37.88;;
53269;SDS011;39159;45.634;9.420;2023-01-31T05:12:37;89.38;;;39.28;;
53269;SDS011;39159;45.634;9.420;2023-01-31T05:15:03;82.20;;;38.35;;
53269;SDS011;39159;45.634;9.420;2023-01-31T05:17:31;87.68;;;39.30;;
53269;SDS011;39159;45.634;9.420;2023-01-31T05:19:56;88.22;;;38.95;;
53269;SDS011;39159;45.634;9.420;2023-01-31T05:22:22;79.50;;;38.38;;
53269;SDS011;39159;45.634;9.420;2023-01-31T05:24:48;85.93;;;38.15;;
53269;SDS011;39159;45.634;9.420;2023-01-31T05:27:14;79.18;;;38.05;;
53269;SDS011;39159;45.634;9.420;2023-01-31T05:29:41;79.25;;;37.85;;
53269;SDS011;39159;45.634;9.420;2023-01-31T05:32:06;76.13;;;36.58;;
53269;SDS011;39159;45.634;9.420;2023-01-31T05:34:32;78.75;;;38.20;;
53269;SDS011;39159;45.634;9.420;2023-01-31T05:36:59;81.57;;;37.95;;
53269;SDS011;39159;45.634;9.420;2023-01-31T05:39:25;81.93;;;36.78;;
53269;SDS011;39159;45.634;9.420;2023-01-31T05:41:51;78.68;;;36.67;;
53269;SDS011;39159;45.634;9.420;2023-01-31T05:44:17;83.45;;;36.92;;
53269;SDS011;39159;45.634;9.420;2023-01-31T05:46:43;78.15;;;34.90;;
53269;SDS011;39159;45.634;9.420;2023-01-31T05:49:09;77.95;;;36.25;;
53269;SDS011;39159;45.634;9.420;2023-01-31T05:51:35;78.93;;;36.67;;
53269;SDS011;39159;45.634;9.420;2023-01-31T05:54:00;78.35;;;37.15;;
53269;SDS011;39159;45.634;9.420;2023-01-31T05:56:25;82.18;;;37.85;;
53269;SDS011;39159;45.634;9.420;2023-01-31T05:58:51;81.05;;;37.58;;
53269;SDS011;39159;45.634;9.420;2023-01-31T06:01:17;74.47;;;36.65;;
53269;SDS011;39159;45.634;9.420;2023-01-31T06:03:44;78.47;;;38.40;;
53269;SDS011;39159;45.634;9.420;2023-01-31T06:06:09;85.95;;;36.88;;
53269;SDS011;39159;45.634;9.420;2023-01-31T06:08:35;77.03;;;35.83;;
53269;SDS011;39159;45.634;9.420;2023-01-31T06:11:01;85.05;;;38.35;;
53269;SDS011;39159;45.634;9.420;2023-01-31T06:13:28;75.82;;;36.00;;
53269;SDS011;39159;45.634;9.420;2023-01-31T06:15:54;76.25;;;37.92;;
53269;SDS011;39159;45.634;9.420;2023-01-31T06:18:20;81.55;;;37.83;;
53269;SDS011;39159;45.634;9.420;2023-01-31T06:20:45;84.47;;;38.80;;
53269;SDS011;39159;45.634;9.420;2023-01-31T06:23:10;82.47;;;37.80;;
53269;SDS011;39159;45.634;9.420;2023-01-31T06:25:36;81.28;;;39.10;;
53269;SDS011;39159;45.634;9.420;2023-01-31T06:28:01;85.65;;;38.45;;
53269;SDS011;39159;45.634;9.420;2023-01-31T06:30:27;91.85;;;40.47;;
53269;SDS011;39159;45.634;9.420;2023-01-31T06:32:52;91.18;;;41.65;;
53269;SDS011;39159;45.634;9.420;2023-01-31T06:35:17;91.40;;;40.65;;
53269;SDS011;39159;45.634;9.420;2023-01-31T06:37:43;100.63;;;41.22;;
53269;SDS011;39159;45.634;9.420;2023-01-31T06:40:08;89.57;;;40.35;;
53269;SDS011;39159;45.634;9.420;2023-01-31T06:42:34;84.55;;;40.47;;
53269;SDS011;39159;45.634;9.420;2023-01-31T06:45:00;88.65;;;42.42;;
53269;SDS011;39159;45.634;9.420;2023-01-31T06:47:25;94.43;;;41.50;;
53269;SDS011;39159;45.634;9.420;2023-01-31T06:49:51;84.57;;;42.20;;
53269;SDS011;39159;45.634;9.420;2023-01-31T06:52:16;89.53;;;40.80;;
53269;SDS011;39159;45.634;9.420;2023-01-31T06:54:41;88.03;;;41.15;;
53269;SDS011;39159;45.634;9.420;2023-01-31T06:57:07;83.75;;;39.45;;
53269;SDS011;39159;45.634;9.420;2023-01-31T06:59:32;90.03;;;40.63;;
53269;SDS011;39159;45.634;9.420;2023-01-31T07:01:58;89.32;;;41.97;;
53269;SDS011;39159;45.634;9.420;2023-01-31T07:04:23;90.68;;;42.70;;
53269;SDS011;39159;45.634;9.420;2023-01-31T07:06:48;82.65;;;42.28;;
53269;SDS011;39159;45.634;9.420;2023-01-31T07:09:14;98.45;;;41.55;;
53269;SDS011;39159;45.634;9.420;2023-01-31T07:11:39;82.40;;;39.97;;
53269;SDS011;39159;45.634;9.420;2023-01-31T07:14:04;85.65;;;39.55;;
53269;SDS011;39159;45.634;9.420;2023-01-31T07:16:30;86.55;;;41.08;;
53269;SDS011;39159;45.634;9.420;2023-01-31T07:18:55;82.28;;;40.78;;
53269;SDS011;39159;45.634;9.420;2023-01-31T07:21:23;79.40;;;39.13;;
53269;SDS011;39159;45.634;9.420;2023-01-31T07:23:50;80.45;;;39.70;;
53269;SDS011;39159;45.634;9.420;2023-01-31T07:26:15;84.53;;;39.67;;
53269;SDS011;39159;45.634;9.420;2023-01-31T07:28:41;93.13;;;42.38;;
53269;SDS011;39159;45.634;9.420;2023-01-31T07:31:10;93.32;;;41.10;;
53269;SDS011;39159;45.634;9.420;2023-01-31T07:33:37;93.93;;;40.28;;
53269;SDS011;39159;45.634;9.420;2023-01-31T07:36:03;84.97;;;40.10;;
53269;SDS011;39159;45.634;9.420;2023-01-31T07:38:30;84.07;;;40.80;;
53269;SDS011;39159;45.634;9.420;2023-01-31T07:40:59;85.18;;;41.47;;
53269;SDS011;39159;45.634;9.420;2023-01-31T07:43:27;87.63;;;42.38;;
53269;SDS011;39159;45.634;9.420;2023-01-31T07:45:52;85.80;;;40.78;;
53269;SDS011;39159;45.634;9.420;2023-01-31T07:48:18;87.07;;;40.28;;
53269;SDS011;39159;45.634;9.420;2023-01-31T07:50:48;91.88;;;42.38;;
53269;SDS011;39159;45.634;9.420;2023-01-31T07:53:16;82.35;;;41.40;;
53269;SDS011;39159;45.634;9.420;2023-01-31T07:55:42;91.82;;;41.78;;
53269;SDS011;39159;45.634;9.420;2023-01-31T07:58:11;84.22;;;40.13;;
53269;SDS011;39159;45.634;9.420;2023-01-31T08:00:40;85.97;;;40.25;;
53269;SDS011;39159;45.634;9.420;2023-01-31T08:03:25;88.78;;;41.55;;
53269;SDS011;39159;45.634;9.420;2023-01-31T08:06:02;86.63;;;42.05;;
53269;SDS011;39159;45.634;9.420;2023-01-31T08:08:31;78.93;;;39.00;;
53269;SDS011;39159;45.634;9.420;2023-01-31T08:10:57;81.57;;;39.65;;
53269;SDS011;39159;45.634;9.420;2023-01-31T08:13:22;79.88;;;40.17;;
53269;SDS011;39159;45.634;9.420;2023-01-31T08:15:50;78.50;;;38.83;;
53269;SDS011;39159;45.634;9.420;2023-01-31T08:18:16;83.72;;;40.25;;
53269;SDS011;39159;45.634;9.420;2023-01-31T08:20:41;78.10;;;38.60;;
53269;SDS011;39159;45.634;9.420;2023-01-31T08:23:07;70.40;;;38.88;;
53269;SDS011;39159;45.634;9.420;2023-01-31T08:25:32;76.97;;;38.22;;
53269;SDS011;39159;45.634;9.420;2023-01-31T08:27:58;77.43;;;39.40;;
53269;SDS011;39159;45.634;9.420;2023-01-31T08:30:24;78.85;;;40.65;;
53269;SDS011;39159;45.634;9.420;2023-01-31T08:32:50;76.40;;;39.45;;
53269;SDS011;39159;45.634;9.420;2023-01-31T08:35:15;77.95;;;39.22;;
53269;SDS011;39159;45.634;9.420;2023-01-31T08:37:41;78.07;;;39.97;;
53269;SDS011;39159;45.634;9.420;2023-01-31T08:40:06;73.95;;;38.67;;
53269;SDS011;39159;45.634;9.420;2023-01-31T08:42:32;78.50;;;39.83;;
53269;SDS011;39159;45.634;9.420;2023-01-31T08:44:57;77.88;;;39.58;;
53269;SDS011;39159;45.634;9.420;2023-01-31T08:47:23;74.07;;;39.25;;
53269;SDS011;39159;45.634;9.420;2023-01-31T08:49:48;76.07;;;37.60;;
53269;SDS011;39159;45.634;9.420;2023-01-31T08:52:14;75.22;;;40.20;;
53269;SDS011;39159;45.634;9.420;2023-01-31T08:54:39;72.75;;;39.72;;
53269;SDS011;39159;45.634;9.420;2023-01-31T08:57:04;73.07;;;40.25;;
53269;SDS011;39159;45.634;9.420;2023-01-31T08:59:30;71.80;;;39.42;;
53269;SDS011;39159;45.634;9.420;2023-01-31T09:01:55;78.68;;;40.55;;
53269;SDS011;39159;45.634;9.420;2023-01-31T09:04:21;70.35;;;39.03;;
53269;SDS011;39159;45.634;9.420;2023-01-31T09:06:46;71.82;;;38.50;;
53269;SDS011;39159;45.634;9.420;2023-01-31T09:09:11;74.28;;;39.58;;
53269;SDS011;39159;45.634;9.420;2023-01-31T09:11:37;62.28;;;36.60;;
53269;SDS011;39159;45.634;9.420;2023-01-31T09:14:03;73.85;;;40.15;;
53269;SDS011;39159;45.634;9.420;2023-01-31T09:16:29;69.15;;;38.97;;
53269;SDS011;39159;45.634;9.420;2023-01-31T09:18:55;73.25;;;41.88;;
53269;SDS011;39159;45.634;9.420;2023-01-31T09:21:21;73.85;;;40.70;;
53269;SDS011;39159;45.634;9.420;2023-01-31T09:23:48;73.38;;;39.83;;
53269;SDS011;39159;45.634;9.420;2023-01-31T09:26:18;68.05;;;40.22;;
53269;SDS011;39159;45.634;9.420;2023-01-31T09:28:43;75.25;;;39.97;;
53269;SDS011;39159;45.634;9.420;2023-01-31T09:31:10;68.53;;;39.50;;
53269;SDS011;39159;45.634;9.420;2023-01-31T09:33:37;70.22;;;38.58;;
53269;SDS011;39159;45.634;9.420;2023-01-31T09:36:03;68.30;;;38.90;;
53269;SDS011;39159;45.634;9.420;2023-01-31T09:38:31;64.30;;;38.30;;
53269;SDS011;39159;45.634;9.420;2023-01-31T09:40:57;72.57;;;38.65;;
53269;SDS011;39159;45.634;9.420;2023-01-31T09:43:27;69.70;;;38.22;;
53269;SDS011;39159;45.634;9.420;2023-01-31T09:45:58;60.65;;;35.88;;
53269;SDS011;39159;45.634;9.420;2023-01-31T09:48:28;67.00;;;36.08;;
53269;SDS011;39159;45.634;9.420;2023-01-31T09:50:59;70.60;;;37.67;;
53269;SDS011;39159;45.634;9.420;2023-01-31T09:53:36;66.47;;;37.45;;
53269;SDS011;39159;45.634;9.420;2023-01-31T09:58:39;67.68;;;36.78;;
53269;SDS011;39159;45.634;9.420;2023-01-31T10:09:06;67.63;;;37.75;;
53269;SDS011;39159;45.634;9.420;2023-01-31T10:11:47;69.80;;;37.33;;
53269;SDS011;39159;45.634;9.420;2023-01-31T10:14:34;66.85;;;36.67;;
53269;SDS011;39159;45.634;9.420;2023-01-31T10:19:56;65.25;;;37.90;;
53269;SDS011;39159;45.634;9.420;2023-01-31T10:23:26;68.00;;;39.72;;
53269;SDS011;39159;45.634;9.420;2023-01-31T10:28:16;69.20;;;39.03;;
53269;SDS011;39159;45.634;9.420;2023-01-31T10:30:59;67.50;;;40.58;;
53269;SDS011;39159;45.634;9.420;2023-01-31T10:33:34;76.68;;;42.35;;
53269;SDS011;39159;45.634;9.420;2023-01-31T10:36:37;70.13;;;41.28;;
53269;SDS011;39159;45.634;9.420;2023-01-31T10:44:20;71.13;;;41.53;;
53269;SDS011;39159;45.634;9.420;2023-01-31T10:46:47;68.15;;;39.65;;
53269;SDS011;39159;45.634;9.420;2023-01-31T10:49:12;69.57;;;39.20;;
53269;SDS011;39159;45.634;9.420;2023-01-31T10:51:57;69.18;;;38.72;;
53269;SDS011;39159;45.634;9.420;2023-01-31T10:54:58;67.60;;;39.70;;
53269;SDS011;39159;45.634;9.420;2023-01-31T10:57:25;71.13;;;39.95;;
53269;SDS011;39159;45.634;9.420;2023-01-31T10:59:51;66.28;;;38.15;;
53269;SDS011;39159;45.634;9.420;2023-01-31T11:02:19;73.28;;;40.72;;
53269;SDS011;39159;45.634;9.420;2023-01-31T11:04:48;65.15;;;38.05;;
53269;SDS011;39159;45.634;9.420;2023-01-31T11:07:15;63.70;;;37.20;;
53269;SDS011;39159;45.634;9.420;2023-01-31T11:09:42;65.72;;;36.17;;
53269;SDS011;39159;45.634;9.420;2023-01-31T11:12:10;62.50;;;34.92;;
53269;SDS011;39159;45.634;9.420;2023-01-31T11:14:36;58.97;;;33.03;;
53269;SDS011;39159;45.634;9.420;2023-01-31T11:17:04;59.42;;;35.03;;
53269;SDS011;39159;45.634;9.420;2023-01-31T11:19:37;65.05;;;37.20;;
53269;SDS011;39159;45.634;9.420;2023-01-31T11:25:14;59.92;;;35.03;;
53269;SDS011;39159;45.634;9.420;2023-01-31T11:27:44;54.80;;;31.90;;
53269;SDS011;39159;45.634;9.420;2023-01-31T11:32:59;57.30;;;31.73;;
53269;SDS011;39159;45.634;9.420;2023-01-31T11:35:32;48.30;;;28.05;;
53269;SDS011;39159;45.634;9.420;2023-01-31T11:38:07;45.78;;;26.13;;
53269;SDS011;39159;45.634;9.420;2023-01-31T11:40:46;52.40;;;30.20;;
53269;SDS011;39159;45.634;9.420;2023-01-31T11:45:43;56.08;;;33.88;;
53269;SDS011;39159;45.634;9.420;2023-01-31T11:50:53;51.90;;;32.67;;
53269;SDS011;39159;45.634;9.420;2023-01-31T11:53:23;55.97;;;33.38;;
53269;SDS011;39159;45.634;9.420;2023-01-31T11:55:52;54.58;;;34.53;;
53269;SDS011;39159;45.634;9.420;2023-01-31T11:58:22;59.20;;;34.58;;
53269;SDS011;39159;45.634;9.420;2023-01-31T12:01:42;59.45;;;35.90;;
53269;SDS011;39159;45.634;9.420;2023-01-31T12:03:47;62.95;;;36.35;;
53269;SDS011;39159;45.634;9.420;2023-01-31T12:06:29;62.40;;;35.45;;
53269;SDS011;39159;45.634;9.420;2023-01-31T12:09:01;61.58;;;37.03;;
53269;SDS011;39159;45.634;9.420;2023-01-31T12:11:30;65.50;;;37.88;;
53269;SDS011;39159;45.634;9.420;2023-01-31T12:14:14;64.35;;;37.67;;
53269;SDS011;39159;45.634;9.420;2023-01-31T12:16:40;58.17;;;36.33;;
53269;SDS011;39159;45.634;9.420;2023-01-31T12:24:42;61.42;;;37.55;;
53269;SDS011;39159;45.634;9.420;2023-01-31T12:35:31;62.78;;;36.00;;
53269;SDS011;39159;45.634;9.420;2023-01-31T12:38:34;61.40;;;34.63;;
53269;SDS011;39159;45.634;9.420;2023-01-31T12:41:27;61.58;;;34.85;;
53269;SDS011;39159;45.634;9.420;2023-01-31T13:00:02;71.68;;;41.30;;
53269;SDS011;39159;45.634;9.420;2023-01-31T13:05:32;73.93;;;41.75;;
53269;SDS011;39159;45.634;9.420;2023-01-31T13:08:06;74.43;;;42.25;;
53269;SDS011;39159;45.634;9.420;2023-01-31T13:11:04;67.28;;;40.55;;
53269;SDS011;39159;45.634;9.420;2023-01-31T13:13:42;70.82;;;42.55;;
53269;SDS011;39159;45.634;9.420;2023-01-31T13:19:21;80.00;;;44.13;;
53269;SDS011;39159;45.634;9.420;2023-01-31T13:21:51;73.22;;;44.05;;
53269;SDS011;39159;45.634;9.420;2023-01-31T13:24:22;65.82;;;40.33;;
53269;SDS011;39159;45.634;9.420;2023-01-31T13:27:10;84.43;;;44.08;;
53269;SDS011;39159;45.634;9.420;2023-01-31T13:32:44;67.97;;;41.28;;
53269;SDS011;39159;45.634;9.420;2023-01-31T13:35:23;65.03;;;39.17;;
53269;SDS011;39159;45.634;9.420;2023-01-31T13:37:55;68.07;;;41.03;;
53269;SDS011;39159;45.634;9.420;2023-01-31T13:40:27;74.57;;;41.38;;
53269;SDS011;39159;45.634;9.420;2023-01-31T13:42:56;70.82;;;40.38;;
53269;SDS011;39159;45.634;9.420;2023-01-31T13:45:34;63.58;;;38.95;;
53269;SDS011;39159;45.634;9.420;2023-01-31T13:48:08;64.47;;;39.55;;
53269;SDS011;39159;45.634;9.420;2023-01-31T13:51:26;70.05;;;39.25;;
53269;SDS011;39159;45.634;9.420;2023-01-31T13:54:00;63.95;;;38.83;;
53269;SDS011;39159;45.634;9.420;2023-01-31T13:56:34;69.28;;;39.17;;
53269;SDS011;39159;45.634;9.420;2023-01-31T13:59:01;68.03;;;40.13;;
53269;SDS011;39159;45.634;9.420;2023-01-31T14:01:31;64.43;;;38.65;;
53269;SDS011;39159;45.634;9.420;2023-01-31T14:07:22;73.07;;;38.25;;
53269;SDS011;39159;45.634;9.420;2023-01-31T14:09:34;67.25;;;38.22;;
53269;SDS011;39159;45.634;9.420;2023-01-31T14:22:20;65.63;;;38.42;;
53269;SDS011;39159;45.634;9.420;2023-01-31T14:30:08;65.05;;;36.75;;
53269;SDS011;39159;45.634;9.420;2023-01-31T14:41:16;61.90;;;35.08;;
53269;SDS011;39159;45.634;9.420;2023-01-31T14:55:23;65.15;;;34.10;;
53269;SDS011;39159;45.634;9.420;2023-01-31T14:58:04;59.13;;;34.50;;
53269;SDS011;39159;45.634;9.420;2023-01-31T15:00:37;64.88;;;35.03;;
53269;SDS011;39159;45.634;9.420;2023-01-31T15:56:58;57.55;;;32.28;;
53269;SDS011;39159;45.634;9.420;2023-01-31T15:59:26;59.08;;;32.90;;
53269;SDS011;39159;45.634;9.420;2023-01-31T16:01:55;61.70;;;33.88;;
53269;SDS011;39159;45.634;9.420;2023-01-31T16:04:24;61.42;;;33.55;;
53269;SDS011;39159;45.634;9.420;2023-01-31T16:06:49;59.60;;;32.92;;
53269;SDS011;39159;45.634;9.420;2023-01-31T16:09:23;62.72;;;32.42;;
53269;SDS011;39159;45.634;9.420;2023-01-31T16:11:59;57.00;;;30.63;;
53269;SDS011;39159;45.634;9.420;2023-01-31T16:14:26;64.13;;;33.35;;
53269;SDS011;39159;45.634;9.420;2023-01-31T16:16:53;55.78;;;30.63;;
53269;SDS011;39159;45.634;9.420;2023-01-31T16:19:21;61.63;;;32.15;;
53269;SDS011;39159;45.634;9.420;2023-01-31T16:21:51;60.75;;;32.95;;
53269;SDS011;39159;45.634;9.420;2023-01-31T16:24:18;55.85;;;30.45;;
53269;SDS011;39159;45.634;9.420;2023-01-31T16:27:04;54.35;;;30.73;;
53269;SDS011;39159;45.634;9.420;2023-01-31T16:29:40;54.33;;;30.13;;
53269;SDS011;39159;45.634;9.420;2023-01-31T16:32:19;58.67;;;31.08;;
53269;SDS011;39159;45.634;9.420;2023-01-31T16:34:53;55.88;;;30.80;;
53269;SDS011;39159;45.634;9.420;2023-01-31T16:37:30;55.58;;;30.00;;
53269;SDS011;39159;45.634;9.420;2023-01-31T16:39:58;55.35;;;29.23;;
53269;SDS011;39159;45.634;9.420;2023-01-31T16:42:26;58.20;;;31.73;;
53269;SDS011;39159;45.634;9.420;2023-01-31T16:44:55;60.42;;;30.98;;
53269;SDS011;39159;45.634;9.420;2023-01-31T16:47:31;57.78;;;31.88;;
53269;SDS011;39159;45.634;9.420;2023-01-31T16:55:43;62.25;;;32.50;;
53269;SDS011;39159;45.634;9.420;2023-01-31T16:58:10;60.80;;;31.27;;
53269;SDS011;39159;45.634;9.420;2023-01-31T17:00:37;64.00;;;31.65;;
53269;SDS011;39159;45.634;9.420;2023-01-31T17:03:10;73.75;;;36.38;;
53269;SDS011;39159;45.634;9.420;2023-01-31T17:05:39;69.20;;;34.33;;
53269;SDS011;39159;45.634;9.420;2023-01-31T17:08:15;62.60;;;31.15;;
53269;SDS011;39159;45.634;9.420;2023-01-31T17:10:42;56.85;;;30.80;;
53269;SDS011;39159;45.634;9.420;2023-01-31T17:13:21;54.83;;;29.58;;
53269;SDS011;39159;45.634;9.420;2023-01-31T17:15:49;59.63;;;31.27;;
53269;SDS011;39159;45.634;9.420;2023-01-31T17:18:15;63.55;;;32.90;;
53269;SDS011;39159;45.634;9.420;2023-01-31T17:20:41;55.33;;;30.35;;
53269;SDS011;39159;45.634;9.420;2023-01-31T17:23:10;65.43;;;33.40;;
53269;SDS011;39159;45.634;9.420;2023-01-31T17:25:36;61.95;;;32.47;;
53269;SDS011;39159;45.634;9.420;2023-01-31T17:28:02;61.90;;;33.40;;
53269;SDS011;39159;45.634;9.420;2023-01-31T17:30:29;67.18;;;33.25;;
53269;SDS011;39159;45.634;9.420;2023-01-31T17:32:55;63.55;;;34.00;;
53269;SDS011;39159;45.634;9.420;2023-01-31T17:35:25;60.70;;;32.83;;
53269;SDS011;39159;45.634;9.420;2023-01-31T17:37:55;75.78;;;38.03;;
53269;SDS011;39159;45.634;9.420;2023-01-31T17:40:21;77.95;;;39.42;;
53269;SDS011;39159;45.634;9.420;2023-01-31T17:42:48;75.22;;;38.15;;
53269;SDS011;39159;45.634;9.420;2023-01-31T17:45:16;77.38;;;40.25;;
53269;SDS011;39159;45.634;9.420;2023-01-31T17:47:43;72.28;;;37.22;;
53269;SDS011;39159;45.634;9.420;2023-01-31T17:50:13;70.72;;;36.50;;
53269;SDS011;39159;45.634;9.420;2023-01-31T17:52:43;71.03;;;36.30;;
53269;SDS011;39159;45.634;9.420;2023-01-31T17:55:09;69.00;;;35.55;;
53269;SDS011;39159;45.634;9.420;2023-01-31T17:57:35;73.10;;;36.10;;
53269;SDS011;39159;45.634;9.420;2023-01-31T18:00:01;68.43;;;37.05;;
53269;SDS011;39159;45.634;9.420;2023-01-31T18:02:29;70.88;;;37.53;;